createdAt,value
2023-02-24T00:00:07.558Z,12844.00
2023-02-24T00:04:12.724Z,12858.28
2023-02-24T00:08:14.217Z,12856.25
2023-02-24T00:12:16.401Z,12846.03
2023-02-24T00:16:17.868Z,12839.91
2023-02-24T00:20:21.184Z,12829.69
2023-02-24T00:24:22.745Z,12837.88
2023-02-24T00:28:24.216Z,12825.59
2023-02-24T00:32:25.977Z,12835.81
2023-02-24T00:36:30.800Z,12886.91
2023-02-24T00:40:32.281Z,12942.06
2023-02-24T00:44:35.834Z,12925.72
2023-02-24T00:48:38.516Z,12974.75
2023-02-24T00:52:41.258Z,12964.53
2023-02-24T00:56:44.139Z,12931.84
2023-02-24T01:00:45.639Z,12905.28
2023-02-24T01:04:47.098Z,12966.56
2023-02-24T01:08:52.136Z,12919.59
2023-02-24T01:12:53.792Z,12946.16
2023-02-24T01:16:56.134Z,12952.28
2023-02-24T01:20:58.175Z,12972.72
2023-02-24T01:25:00.881Z,12970.66
2023-02-24T01:29:02.470Z,12964.53
2023-02-24T01:33:04.245Z,12921.63
2023-02-24T01:37:05.756Z,12968.63
2023-02-24T01:41:10.293Z,12964.53
2023-02-24T01:45:15.891Z,12989.06
2023-02-24T01:49:20.902Z,12980.88
2023-02-24T01:53:22.343Z,13019.69
2023-02-24T01:57:31.211Z,12995.19
2023-02-24T02:01:32.767Z,13013.56
2023-02-24T02:05:34.588Z,12989.06
2023-02-24T02:09:36.403Z,13011.53
2023-02-24T02:13:43.053Z,12993.13
2023-02-24T02:17:55.777Z,13048.31
2023-02-24T02:22:33.629Z,12984.97
2023-02-24T02:27:00.793Z,12958.41
2023-02-24T02:31:23.121Z,12997.22
2023-02-24T02:35:28.872Z,12984.97
2023-02-24T02:39:42.726Z,12987.00
2023-02-24T02:43:51.123Z,13009.47
2023-02-24T02:47:59.207Z,12995.19
2023-02-24T02:52:06.807Z,13013.56
2023-02-24T02:56:12.713Z,12972.72
2023-02-24T03:00:19.153Z,12993.13
2023-02-24T03:04:22.674Z,13017.66
2023-02-24T03:08:29.900Z,13038.09
2023-02-24T03:12:33.694Z,12995.19
2023-02-24T03:16:35.406Z,13050.34
2023-02-24T03:20:42.278Z,13034.00
2023-02-24T03:24:45.851Z,13058.53
2023-02-24T03:28:53.654Z,13056.47
2023-02-24T03:33:00.160Z,13058.53
2023-02-24T03:37:01.650Z,13068.75
2023-02-24T03:41:04.989Z,13087.13
2023-02-24T03:45:08.434Z,13111.66
2023-02-24T03:49:13.272Z,13048.31
2023-02-24T03:53:28.426Z,13038.09
2023-02-24T03:57:41.880Z,13081.00
2023-02-24T04:01:50.840Z,13113.69
2023-02-24T04:06:06.206Z,13103.47
2023-02-24T04:10:15.543Z,13078.94
2023-02-24T04:14:24.107Z,13048.31
2023-02-24T04:18:29.285Z,13125.94
2023-02-24T04:22:31.186Z,13115.72
2023-02-24T04:26:36.200Z,13074.88
2023-02-24T04:30:43.515Z,13105.50
2023-02-24T04:34:45.059Z,13125.94
2023-02-24T04:38:46.851Z,13121.84
2023-02-24T04:42:49.673Z,13134.13
2023-02-24T04:46:52.457Z,13117.78
2023-02-24T04:50:53.841Z,13185.19
2023-02-24T04:54:55.285Z,13148.41
2023-02-24T04:58:57.157Z,13189.28
2023-02-24T05:03:01.427Z,13154.56
2023-02-24T05:07:02.925Z,13195.41
2023-02-24T05:11:04.471Z,13217.88
2023-02-24T05:15:09.113Z,13207.69
2023-02-24T05:19:14.172Z,13224.03
2023-02-24T05:23:16.614Z,13246.50
2023-02-24T05:27:18.232Z,13246.50
2023-02-24T05:31:22.079Z,13262.84
2023-02-24T05:35:25.073Z,13268.97
2023-02-24T05:39:26.948Z,13260.78
2023-02-24T05:43:28.353Z,13232.19
2023-02-24T05:47:29.852Z,13252.63
2023-02-24T05:51:33.071Z,13197.47
2023-02-24T05:55:34.485Z,13260.78
2023-02-24T05:59:35.993Z,13279.19
2023-02-24T06:03:37.384Z,13230.16
2023-02-24T06:07:40.152Z,13213.81
2023-02-24T06:11:42.986Z,13256.72
2023-02-24T06:15:45.493Z,13224.03
2023-02-24T06:19:50.891Z,13211.75
2023-02-24T06:23:53.674Z,13252.63
2023-02-24T06:27:56.375Z,13260.78
2023-02-24T06:31:57.884Z,13248.53
2023-02-24T06:35:59.814Z,13254.66
2023-02-24T06:40:02.708Z,13254.66
2023-02-24T06:44:04.594Z,13224.03
2023-02-24T06:48:06.309Z,13221.97
2023-02-24T06:52:08.243Z,13219.94
2023-02-24T06:56:12.342Z,13207.69
2023-02-24T07:00:14.317Z,13189.28
2023-02-24T07:04:17.572Z,13283.28
2023-02-24T07:08:20.825Z,13254.66
2023-02-24T07:12:23.776Z,13256.72
2023-02-24T07:16:25.884Z,13193.38
2023-02-24T07:20:27.259Z,13240.38
2023-02-24T07:24:30.636Z,13185.19
2023-02-24T07:28:33.424Z,13242.41
2023-02-24T07:32:34.947Z,13236.28
2023-02-24T07:36:36.598Z,13258.75
2023-02-24T07:40:39.007Z,13283.28
2023-02-24T07:44:41.735Z,13279.19
2023-02-24T07:48:43.102Z,13271.00
2023-02-24T07:52:45.898Z,13242.41
2023-02-24T07:56:47.550Z,13291.44
2023-02-24T08:00:50.324Z,13309.84
2023-02-24T08:04:51.997Z,13354.78
2023-02-24T08:08:55.423Z,13289.41
2023-02-24T08:12:56.999Z,13281.22
2023-02-24T08:16:59.773Z,13295.53
2023-02-24T08:21:01.185Z,13311.88
2023-02-24T08:25:03.400Z,13311.88
2023-02-24T08:29:04.817Z,13303.72
2023-02-24T08:33:09.741Z,13293.50
2023-02-24T08:37:11.237Z,13328.22
2023-02-24T08:41:14.475Z,13356.84
2023-02-24T08:45:15.998Z,13299.63
2023-02-24T08:49:19.448Z,13348.66
2023-02-24T08:53:21.536Z,13356.84
2023-02-24T08:57:22.994Z,13381.34
2023-02-24T09:01:27.843Z,13393.63
2023-02-24T09:05:30.697Z,13440.59
2023-02-24T09:09:32.208Z,13426.31
2023-02-24T09:13:35.188Z,13442.66
2023-02-24T09:17:36.879Z,13416.09
2023-02-24T09:21:40.070Z,13503.94
2023-02-24T09:25:41.594Z,13485.56
2023-02-24T09:29:43.200Z,13508.03
2023-02-24T09:33:44.649Z,13499.88
2023-02-24T09:37:47.415Z,13512.13
2023-02-24T09:41:51.231Z,13540.72
2023-02-24T09:45:59.440Z,13557.09
2023-02-24T09:50:10.772Z,13569.34
2023-02-24T09:54:16.666Z,13577.50
2023-02-24T09:58:26.953Z,13622.47
2023-02-24T10:02:43.895Z,13587.72
2023-02-24T10:06:48.680Z,13618.38
2023-02-24T10:10:53.612Z,13577.50
2023-02-24T10:15:00.933Z,13636.78
2023-02-24T10:19:10.578Z,13642.91
2023-02-24T10:23:17.977Z,13659.25
2023-02-24T10:27:24.044Z,13651.09
2023-02-24T10:31:30.013Z,13647.00
2023-02-24T10:35:31.729Z,13696.03
2023-02-24T10:39:35.502Z,13689.91
2023-02-24T10:43:38.726Z,13667.44
2023-02-24T10:47:40.668Z,13696.03
2023-02-24T10:51:47.066Z,13710.34
2023-02-24T10:55:48.824Z,13671.50
2023-02-24T10:59:57.495Z,13720.56
2023-02-24T11:04:02.807Z,13732.81
2023-02-24T11:08:06.517Z,13718.50
2023-02-24T11:12:15.243Z,13714.44
2023-02-24T11:16:18.653Z,13726.69
2023-02-24T11:20:48.370Z,13736.91
2023-02-24T11:24:52.010Z,13747.13
2023-02-24T11:29:03.585Z,13708.28
2023-02-24T11:33:19.239Z,13716.47
2023-02-24T11:37:31.322Z,13679.69
2023-02-24T11:41:37.019Z,13700.13
2023-02-24T11:45:43.239Z,13659.25
2023-02-24T11:49:50.327Z,13616.34
2023-02-24T11:53:55.707Z,13665.38
2023-02-24T11:57:59.386Z,13634.72
2023-02-24T12:02:12.746Z,13618.38
2023-02-24T12:06:22.499Z,13630.66
2023-02-24T12:10:27.756Z,13647.00
2023-02-24T12:14:35.804Z,13620.44
2023-02-24T12:18:39.296Z,13651.09
2023-02-24T12:22:48.385Z,13667.44
2023-02-24T12:27:02.685Z,13620.44
2023-02-24T12:31:10.522Z,13634.72
2023-02-24T12:35:19.863Z,13610.22
2023-02-24T12:39:28.980Z,13565.25
2023-02-24T12:43:35.731Z,13602.03
2023-02-24T12:47:44.388Z,13559.13
2023-02-24T12:51:55.993Z,13614.31
2023-02-24T12:56:07.281Z,13557.09
2023-02-24T13:00:13.836Z,13542.78
2023-02-24T13:04:29.465Z,13520.31
2023-02-24T13:08:43.587Z,13467.16
2023-02-24T13:12:53.666Z,13477.38
2023-02-24T13:17:05.063Z,13456.97
2023-02-24T13:21:09.627Z,13459.00
2023-02-24T13:25:19.597Z,13432.44
2023-02-24T13:29:22.456Z,13409.97
2023-02-24T13:33:28.600Z,13381.34
2023-02-24T13:37:37.408Z,13297.56
2023-02-24T13:41:40.374Z,13354.78
2023-02-24T13:45:55.787Z,13332.31
2023-02-24T13:50:16.397Z,13360.91
2023-02-24T13:54:40.769Z,13399.75
2023-02-24T13:59:20.596Z,13405.88
2023-02-24T14:03:26.860Z,13360.91
2023-02-24T14:07:31.499Z,13387.47
2023-02-24T14:11:36.876Z,13352.75
2023-02-24T14:15:42.698Z,13442.66
2023-02-24T14:19:45.455Z,13385.44
2023-02-24T14:23:55.742Z,13369.09
2023-02-24T14:27:57.754Z,13377.25
2023-02-24T14:32:00.019Z,13362.97
2023-02-24T14:36:04.682Z,13375.22
2023-02-24T14:40:15.142Z,13389.53
2023-02-24T14:44:22.911Z,13371.13
2023-02-24T14:48:26.252Z,13332.31
2023-02-24T14:52:35.409Z,13334.34
2023-02-24T14:56:37.204Z,13379.31
2023-02-24T15:00:43.423Z,13309.84
2023-02-24T15:04:46.942Z,13326.19
2023-02-24T15:08:55.067Z,13340.50
2023-02-24T15:13:00.849Z,13401.78
2023-02-24T15:17:10.032Z,13336.41
2023-02-24T15:21:20.920Z,13320.06
2023-02-24T15:25:41.870Z,13273.06
2023-02-24T15:29:56.623Z,13381.34
2023-02-24T15:34:00.360Z,13311.88
2023-02-24T15:38:02.195Z,13303.72
2023-02-24T15:42:13.506Z,13293.50
2023-02-24T15:46:28.107Z,13311.88
2023-02-24T15:50:31.781Z,13295.53
2023-02-24T15:54:35.905Z,13324.13
2023-02-24T15:58:41.457Z,13283.28
2023-02-24T16:02:43.348Z,13252.63
2023-02-24T16:06:48.131Z,13262.84
2023-02-24T16:10:49.596Z,13258.75
2023-02-24T16:14:52.422Z,13356.84
2023-02-24T16:18:54.108Z,13360.91
2023-02-24T16:22:56.513Z,13277.16
2023-02-24T16:26:58.060Z,13307.78
2023-02-24T16:31:01.055Z,13303.72
2023-02-24T16:35:02.516Z,13309.84
2023-02-24T16:39:04.161Z,13271.00
2023-02-24T16:43:05.566Z,13307.78
2023-02-24T16:47:13.886Z,13244.44
2023-02-24T16:51:16.023Z,13283.28
2023-02-24T16:55:18.220Z,13250.59
2023-02-24T16:59:19.665Z,13258.75
2023-02-24T17:03:24.662Z,13254.66
2023-02-24T17:07:26.074Z,13266.94
2023-02-24T17:11:28.575Z,13246.50
2023-02-24T17:15:30.535Z,13244.44
2023-02-24T17:19:33.293Z,13234.22
2023-02-24T17:23:34.706Z,13246.50
2023-02-24T17:27:36.090Z,13219.94
2023-02-24T17:32:33.374Z,13209.72
2023-02-24T17:36:36.112Z,13203.59
2023-02-24T17:40:37.511Z,13211.75
2023-02-24T17:49:57.573Z,13162.72
2023-02-24T17:54:00.706Z,13232.19
2023-02-24T17:58:02.159Z,13250.59
2023-02-24T18:02:04.450Z,13203.59
2023-02-24T18:06:08.362Z,13250.59
2023-02-24T18:10:12.867Z,13193.38
2023-02-24T18:14:14.250Z,13195.41
2023-02-24T18:18:15.698Z,13201.53
2023-02-24T18:22:17.185Z,13189.28
2023-02-24T18:26:23.476Z,13179.06
2023-02-24T18:30:25.668Z,13177.03
2023-02-24T18:34:27.063Z,13177.03
2023-02-24T18:38:29.182Z,13148.41
2023-02-24T18:42:31.899Z,13172.94
2023-02-24T18:46:33.672Z,13170.91
2023-02-24T18:50:35.177Z,13150.47
2023-02-24T18:54:36.613Z,13152.50
2023-02-24T18:58:40.152Z,13174.97
2023-02-24T19:02:41.575Z,13152.50
2023-02-24T19:06:43.548Z,13166.81
2023-02-24T19:10:45.056Z,13150.47
2023-02-24T19:14:50.970Z,13128.00
2023-02-24T19:18:53.679Z,13138.19
2023-02-24T19:22:55.071Z,13168.84
2023-02-24T19:26:56.722Z,13152.50
2023-02-24T19:31:01.347Z,13199.50
2023-02-24T19:35:02.835Z,13193.38
2023-02-24T19:39:05.422Z,13168.84
2023-02-24T19:43:06.868Z,13189.28
2023-02-24T19:47:09.654Z,13177.03
2023-02-24T19:51:35.589Z,13179.06
2023-02-24T19:55:38.605Z,13232.19
2023-02-24T19:59:39.981Z,13205.63
2023-02-24T20:03:43.096Z,13177.03
2023-02-24T20:07:44.630Z,13234.22
2023-02-24T20:11:46.706Z,13201.53
2023-02-24T20:15:48.480Z,13224.03
2023-02-24T20:19:51.291Z,13240.38
2023-02-24T20:23:52.746Z,13217.88
2023-02-24T20:27:54.162Z,13246.50
2023-02-24T20:31:55.789Z,13250.59
2023-02-24T20:35:58.600Z,13224.03
2023-02-24T20:40:00.016Z,13271.00
2023-02-24T20:44:01.469Z,13275.09
2023-02-24T20:48:02.977Z,13254.66
2023-02-24T20:52:05.731Z,13242.41
2023-02-24T20:56:10.255Z,13258.75
2023-02-24T21:00:12.657Z,13258.75
2023-02-24T21:04:16.016Z,13228.09
2023-02-24T21:08:18.854Z,13232.19
2023-02-24T21:12:20.314Z,13234.22
2023-02-24T21:16:22.424Z,13166.81
2023-02-24T21:20:24.056Z,13217.88
2023-02-24T21:24:27.109Z,13199.50
2023-02-24T21:28:28.535Z,13158.63
2023-02-24T21:32:30.015Z,13185.19
2023-02-24T21:36:31.531Z,13170.91
2023-02-24T21:40:35.457Z,13158.63
2023-02-24T21:44:36.869Z,13183.16
2023-02-24T21:48:38.995Z,13209.72
2023-02-24T21:52:40.463Z,13228.09
2023-02-24T21:56:43.666Z,13252.63
2023-02-24T22:00:47.231Z,13248.53
2023-02-24T22:04:48.662Z,13221.97
2023-02-24T22:08:50.098Z,13236.28
2023-02-24T22:12:56.130Z,13238.31
2023-02-24T22:16:57.957Z,13238.31
2023-02-24T22:20:59.586Z,13238.31
2023-02-24T22:25:01.015Z,13199.50
2023-02-24T22:29:03.950Z,13273.06
2023-02-24T22:33:05.379Z,13240.38
2023-02-24T22:37:07.519Z,13236.28
2023-02-24T22:41:11.999Z,13238.31
2023-02-24T22:45:15.036Z,13215.84
2023-02-24T22:49:16.600Z,13221.97
2023-02-24T22:53:17.984Z,13252.63
2023-02-24T22:57:19.375Z,13246.50
2023-02-24T23:01:24.782Z,13217.88
2023-02-24T23:05:26.173Z,13254.66
2023-02-24T23:09:27.704Z,13244.44
2023-02-24T23:13:29.134Z,13254.66
2023-02-24T23:17:32.259Z,13234.22
2023-02-24T23:21:35.780Z,13281.22
2023-02-24T23:25:37.205Z,13275.09
2023-02-24T23:29:38.663Z,13271.00
2023-02-24T23:33:41.346Z,13234.22
2023-02-24T23:37:42.850Z,13295.53
2023-02-24T23:41:45.454Z,13238.31
2023-02-24T23:45:46.865Z,13273.06
2023-02-24T23:49:49.800Z,13271.00
2023-02-24T23:53:51.367Z,13258.75
2023-02-24T23:57:52.830Z,13268.97
